sensor_id;sensor_type;location;lat;lon;timestamp;pressure;altitude;pressure_sealevel;temperature;humidity
32638;BME280;19045;52.268;10.506;2023-02-03T00:00:30;101043.78;;;4.62;100.00
32638;BME280;19045;52.268;10.506;2023-02-03T00:02:56;101042.78;;;4.63;100.00
32638;BME280;19045;52.268;10.506;2023-02-03T00:05:23;101038.66;;;4.67;100.00
32638;BME280;19045;52.268;10.506;2023-02-03T00:07:50;101040.31;;;4.75;100.00
32638;BME280;19045;52.268;10.506;2023-02-03T00:10:19;101039.50;;;4.81;100.00
32638;BME280;19045;52.268;10.506;2023-02-03T00:12:46;101028.84;;;4.81;100.00
32638;BME280;19045;52.268;10.506;2023-02-03T00:15:13;101025.16;;;4.82;100.00
32638;BME280;19045;52.268;10.506;2023-02-03T00:17:39;101018.81;;;4.83;100.00
32638;BME280;19045;52.268;10.506;2023-02-03T00:20:06;101030.91;;;4.86;100.00
32638;BME280;19045;52.268;10.506;2023-02-03T00:22:33;101014.09;;;4.85;100.00
32638;BME280;19045;52.268;10.506;2023-02-03T00:25:00;101009.78;;;4.84;100.00
32638;BME280;19045;52.268;10.506;2023-02-03T00:27:28;101007.78;;;4.86;100.00
32638;BME280;19045;52.268;10.506;2023-02-03T00:29:54;101006.72;;;4.87;100.00
32638;BME280;19045;52.268;10.506;2023-02-03T00:32:21;101009.38;;;4.87;100.00
32638;BME280;19045;52.268;10.506;2023-02-03T00:34:47;101006.13;;;4.85;100.00
32638;BME280;19045;52.268;10.506;2023-02-03T00:37:14;101006.13;;;4.85;100.00
32638;BME280;19045;52.268;10.506;2023-02-03T00:39:41;100990.97;;;4.86;100.00
32638;BME280;19045;52.268;10.506;2023-02-03T00:42:07;101000.19;;;4.83;100.00
32638;BME280;19045;52.268;10.506;2023-02-03T00:44:35;100976.84;;;4.79;100.00
32638;BME280;19045;52.268;10.506;2023-02-03T00:47:02;100983.59;;;4.81;100.00
32638;BME280;19045;52.268;10.506;2023-02-03T00:49:29;100982.16;;;4.79;100.00
32638;BME280;19045;52.268;10.506;2023-02-03T00:51:56;100988.31;;;4.79;100.00
32638;BME280;19045;52.268;10.506;2023-02-03T00:54:27;100988.91;;;4.81;100.00
32638;BME280;19045;52.268;10.506;2023-02-03T00:56:54;100982.16;;;4.85;100.00
32638;BME280;19045;52.268;10.506;2023-02-03T00:59:20;100992.00;;;4.85;100.00
32638;BME280;19045;52.268;10.506;2023-02-03T01:01:48;100986.06;;;4.83;100.00
32638;BME280;19045;52.268;10.506;2023-02-03T01:04:15;100987.72;;;4.84;100.00
32638;BME280;19045;52.268;10.506;2023-02-03T01:06:42;100982.59;;;4.82;100.00
32638;BME280;19045;52.268;10.506;2023-02-03T01:09:09;100980.09;;;4.87;100.00
32638;BME280;19045;52.268;10.506;2023-02-03T01:11:35;100980.34;;;4.86;100.00
32638;BME280;19045;52.268;10.506;2023-02-03T01:14:02;100980.75;;;4.89;100.00
32638;BME280;19045;52.268;10.506;2023-02-03T01:16:29;100972.34;;;4.92;100.00
32638;BME280;19045;52.268;10.506;2023-02-03T01:19:01;100973.75;;;4.95;100.00
32638;BME280;19045;52.268;10.506;2023-02-03T01:21:28;100962.50;;;4.99;100.00
32638;BME280;19045;52.268;10.506;2023-02-03T01:23:55;100958.59;;;5.08;100.00
32638;BME280;19045;52.268;10.506;2023-02-03T01:26:22;100962.47;;;5.12;100.00
32638;BME280;19045;52.268;10.506;2023-02-03T01:28:50;100961.03;;;5.16;100.00
32638;BME280;19045;52.268;10.506;2023-02-03T01:31:18;100956.91;;;5.20;100.00
32638;BME280;19045;52.268;10.506;2023-02-03T01:33:45;100977.59;;;5.25;100.00
32638;BME280;19045;52.268;10.506;2023-02-03T01:36:15;100969.59;;;5.32;100.00
32638;BME280;19045;52.268;10.506;2023-02-03T01:38:42;100968.16;;;5.36;100.00
32638;BME280;19045;52.268;10.506;2023-02-03T01:41:11;100959.91;;;5.44;100.00
32638;BME280;19045;52.268;10.506;2023-02-03T01:43:40;100971.16;;;5.59;100.00
32638;BME280;19045;52.268;10.506;2023-02-03T01:46:17;100962.25;;;5.78;100.00
32638;BME280;19045;52.268;10.506;2023-02-03T01:48:48;100956.25;;;5.96;100.00
32638;BME280;19045;52.268;10.506;2023-02-03T01:51:16;100946.75;;;6.06;100.00
32638;BME280;19045;52.268;10.506;2023-02-03T01:53:43;100950.16;;;6.13;100.00
32638;BME280;19045;52.268;10.506;2023-02-03T01:56:10;100947.25;;;6.21;100.00
32638;BME280;19045;52.268;10.506;2023-02-03T01:58:38;100958.09;;;6.27;100.00
32638;BME280;19045;52.268;10.506;2023-02-03T02:01:06;100957.06;;;6.28;100.00
32638;BME280;19045;52.268;10.506;2023-02-03T02:03:36;100944.50;;;6.35;100.00
32638;BME280;19045;52.268;10.506;2023-02-03T02:06:07;100938.13;;;6.36;100.00
32638;BME280;19045;52.268;10.506;2023-02-03T02:08:36;100941.41;;;6.38;100.00
32638;BME280;19045;52.268;10.506;2023-02-03T02:11:04;100935.63;;;6.41;100.00
32638;BME280;19045;52.268;10.506;2023-02-03T02:13:32;100930.66;;;6.44;100.00
32638;BME280;19045;52.268;10.506;2023-02-03T02:16:05;100923.03;;;6.48;100.00
32638;BME280;19045;52.268;10.506;2023-02-03T02:18:52;100920.19;;;6.49;100.00
32638;BME280;19045;52.268;10.506;2023-02-03T02:21:52;100920.31;;;6.54;100.00
32638;BME280;19045;52.268;10.506;2023-02-03T02:25:01;100909.22;;;6.57;100.00
32638;BME280;19045;52.268;10.506;2023-02-03T02:27:57;100903.66;;;6.59;100.00
32638;BME280;19045;52.268;10.506;2023-02-03T02:30:38;100885.19;;;6.57;100.00
32638;BME280;19045;52.268;10.506;2023-02-03T02:33:13;100883.72;;;6.61;100.00
32638;BME280;19045;52.268;10.506;2023-02-03T02:35:51;100880.03;;;6.62;100.00
32638;BME280;19045;52.268;10.506;2023-02-03T02:38:30;100884.31;;;6.63;100.00
32638;BME280;19045;52.268;10.506;2023-02-03T02:41:04;100878.75;;;6.65;100.00
32638;BME280;19045;52.268;10.506;2023-02-03T02:43:39;100872.59;;;6.64;100.00
32638;BME280;19045;52.268;10.506;2023-02-03T02:46:09;100862.94;;;6.63;100.00
32638;BME280;19045;52.268;10.506;2023-02-03T02:48:40;100858.66;;;6.62;100.00
32638;BME280;19045;52.268;10.506;2023-02-03T02:51:09;100845.31;;;6.62;100.00
32638;BME280;19045;52.268;10.506;2023-02-03T02:53:41;100845.91;;;6.64;100.00
32638;BME280;19045;52.268;10.506;2023-02-03T02:56:11;100830.25;;;6.68;100.00
32638;BME280;19045;52.268;10.506;2023-02-03T02:58:42;100822.03;;;6.69;100.00
32638;BME280;19045;52.268;10.506;2023-02-03T03:01:12;100811.72;;;6.73;100.00
32638;BME280;19045;52.268;10.506;2023-02-03T03:03:41;100808.63;;;6.76;100.00
32638;BME280;19045;52.268;10.506;2023-02-03T03:06:13;100801.19;;;6.78;100.00
32638;BME280;19045;52.268;10.506;2023-02-03T03:08:46;100801.41;;;6.76;100.00
32638;BME280;19045;52.268;10.506;2023-02-03T03:11:15;100792.94;;;6.80;100.00
32638;BME280;19045;52.268;10.506;2023-02-03T03:13:47;100783.00;;;6.87;100.00
32638;BME280;19045;52.268;10.506;2023-02-03T03:16:15;100806.84;;;6.88;100.00
32638;BME280;19045;52.268;10.506;2023-02-03T03:18:47;100812.53;;;6.92;100.00
32638;BME280;19045;52.268;10.506;2023-02-03T03:21:20;100819.06;;;6.96;100.00
32638;BME280;19045;52.268;10.506;2023-02-03T03:23:49;100817.34;;;7.01;100.00
32638;BME280;19045;52.268;10.506;2023-02-03T03:26:21;100827.00;;;7.02;100.00
32638;BME280;19045;52.268;10.506;2023-02-03T03:28:56;100829.81;;;7.07;100.00
32638;BME280;19045;52.268;10.506;2023-02-03T03:31:25;100825.28;;;7.08;100.00
32638;BME280;19045;52.268;10.506;2023-02-03T03:33:53;100836.09;;;7.13;100.00
32638;BME280;19045;52.268;10.506;2023-02-03T03:36:24;100829.81;;;7.07;100.00
32638;BME280;19045;52.268;10.506;2023-02-03T03:38:55;100814.53;;;7.14;100.00
32638;BME280;19045;52.268;10.506;2023-02-03T03:41:33;100828.16;;;7.06;100.00
32638;BME280;19045;52.268;10.506;2023-02-03T03:44:04;100800.59;;;7.12;100.00
32638;BME280;19045;52.268;10.506;2023-02-03T03:46:39;100807.91;;;7.17;100.00
32638;BME280;19045;52.268;10.506;2023-02-03T03:49:09;100814.06;;;7.17;100.00
32638;BME280;19045;52.268;10.506;2023-02-03T03:51:40;100792.34;;;7.14;100.00
32638;BME280;19045;52.268;10.506;2023-02-03T03:54:12;100812.31;;;7.11;100.00
32638;BME280;19045;52.268;10.506;2023-02-03T03:56:44;100809.38;;;7.13;100.00
32638;BME280;19045;52.268;10.506;2023-02-03T03:59:12;100804.88;;;7.13;100.00
32638;BME280;19045;52.268;10.506;2023-02-03T04:01:41;100786.16;;;7.13;100.00
32638;BME280;19045;52.268;10.506;2023-02-03T04:04:10;100786.16;;;7.13;100.00
32638;BME280;19045;52.268;10.506;2023-02-03T04:06:38;100801.75;;;7.16;100.00
32638;BME280;19045;52.268;10.506;2023-02-03T04:09:04;100796.41;;;7.16;100.00
32638;BME280;19045;52.268;10.506;2023-02-03T04:11:31;100805.47;;;7.15;100.00
32638;BME280;19045;52.268;10.506;2023-02-03T04:14:16;100794.19;;;7.13;100.00
32638;BME280;19045;52.268;10.506;2023-02-03T04:16:42;100795.38;;;7.17;100.00
32638;BME280;19045;52.268;10.506;2023-02-03T04:19:10;100780.75;;;7.20;100.00
32638;BME280;19045;52.268;10.506;2023-02-03T04:21:37;100789.81;;;7.19;100.00
32638;BME280;19045;52.268;10.506;2023-02-03T04:24:04;100769.84;;;7.21;100.00
32638;BME280;19045;52.268;10.506;2023-02-03T04:26:31;100771.31;;;7.17;100.00
32638;BME280;19045;52.268;10.506;2023-02-03T04:28:57;100765.06;;;7.23;100.00
32638;BME280;19045;52.268;10.506;2023-02-03T04:31:24;100777.03;;;7.21;100.00
32638;BME280;19045;52.268;10.506;2023-02-03T04:33:51;100759.38;;;7.20;100.00
32638;BME280;19045;52.268;10.506;2023-02-03T04:36:19;100761.59;;;7.23;100.00
32638;BME280;19045;52.268;10.506;2023-02-03T04:38:47;100771.59;;;7.27;100.00
32638;BME280;19045;52.268;10.506;2023-02-03T04:41:14;100773.44;;;7.27;100.00
32638;BME280;19045;52.268;10.506;2023-02-03T04:43:40;100768.34;;;7.25;100.00
32638;BME280;19045;52.268;10.506;2023-02-03T04:46:07;100766.47;;;7.26;100.00
32638;BME280;19045;52.268;10.506;2023-02-03T04:48:34;100769.13;;;7.26;100.00
32638;BME280;19045;52.268;10.506;2023-02-03T04:51:02;100777.84;;;7.21;100.00
32638;BME280;19045;52.268;10.506;2023-02-03T04:53:30;100775.31;;;7.26;100.00
32638;BME280;19045;52.268;10.506;2023-02-03T04:55:57;100774.56;;;7.19;100.00
32638;BME280;19045;52.268;10.506;2023-02-03T04:58:24;100766.84;;;7.29;100.00
32638;BME280;19045;52.268;10.506;2023-02-03T05:00:52;100758.34;;;7.33;100.00
32638;BME280;19045;52.268;10.506;2023-02-03T05:03:19;100763.50;;;7.34;100.00
32638;BME280;19045;52.268;10.506;2023-02-03T05:05:46;100752.22;;;7.32;100.00
32638;BME280;19045;52.268;10.506;2023-02-03T05:08:12;100748.50;;;7.33;100.00
32638;BME280;19045;52.268;10.506;2023-02-03T05:10:40;100747.81;;;7.38;100.00
32638;BME280;19045;52.268;10.506;2023-02-03T05:13:07;100747.56;;;7.39;100.00
32638;BME280;19045;52.268;10.506;2023-02-03T05:15:34;100740.38;;;7.40;100.00
32638;BME280;19045;52.268;10.506;2023-02-03T05:18:00;100728.88;;;7.39;100.00
32638;BME280;19045;52.268;10.506;2023-02-03T05:20:27;100726.78;;;7.41;100.00
32638;BME280;19045;52.268;10.506;2023-02-03T05:22:53;100727.63;;;7.42;100.00
32638;BME280;19045;52.268;10.506;2023-02-03T05:25:20;100704.13;;;7.44;100.00
32638;BME280;19045;52.268;10.506;2023-02-03T05:27:48;100715.41;;;7.46;100.00
32638;BME280;19045;52.268;10.506;2023-02-03T05:30:15;100706.00;;;7.43;100.00
32638;BME280;19045;52.268;10.506;2023-02-03T05:32:41;100706.09;;;7.37;100.00
32638;BME280;19045;52.268;10.506;2023-02-03T05:35:08;100697.97;;;7.43;100.00
32638;BME280;19045;52.268;10.506;2023-02-03T05:37:34;100702.03;;;7.46;100.00
32638;BME280;19045;52.268;10.506;2023-02-03T05:40:01;100703.09;;;7.45;100.00
32638;BME280;19045;52.268;10.506;2023-02-03T05:42:46;100679.03;;;7.45;100.00
32638;BME280;19045;52.268;10.506;2023-02-03T05:45:14;100666.25;;;7.47;100.00
32638;BME280;19045;52.268;10.506;2023-02-03T05:47:41;100670.56;;;7.48;100.00
32638;BME280;19045;52.268;10.506;2023-02-03T05:50:08;100671.38;;;7.48;100.00
32638;BME280;19045;52.268;10.506;2023-02-03T05:52:34;100671.59;;;7.47;100.00
32638;BME280;19045;52.268;10.506;2023-02-03T05:55:01;100667.66;;;7.49;100.00
32638;BME280;19045;52.268;10.506;2023-02-03T05:57:27;100659.63;;;7.49;100.00
32638;BME280;19045;52.268;10.506;2023-02-03T05:59:54;100664.19;;;7.49;100.00
32638;BME280;19045;52.268;10.506;2023-02-03T06:02:22;100679.16;;;7.50;100.00
32638;BME280;19045;52.268;10.506;2023-02-03T06:04:49;100687.31;;;7.55;100.00
32638;BME280;19045;52.268;10.506;2023-02-03T06:07:15;100679.03;;;7.56;100.00
32638;BME280;19045;52.268;10.506;2023-02-03T06:09:42;100686.84;;;7.58;100.00
32638;BME280;19045;52.268;10.506;2023-02-03T06:12:08;100680.47;;;7.59;100.00
32638;BME280;19045;52.268;10.506;2023-02-03T06:14:35;100658.84;;;7.60;100.00
32638;BME280;19045;52.268;10.506;2023-02-03T06:17:01;100671.38;;;7.60;100.00
32638;BME280;19045;52.268;10.506;2023-02-03T06:19:30;100674.31;;;7.58;100.00
32638;BME280;19045;52.268;10.506;2023-02-03T06:21:57;100678.00;;;7.57;100.00
32638;BME280;19045;52.268;10.506;2023-02-03T06:24:23;100686.13;;;7.62;100.00
32638;BME280;19045;52.268;10.506;2023-02-03T06:26:50;100692.31;;;7.63;100.00
32638;BME280;19045;52.268;10.506;2023-02-03T06:29:17;100686.50;;;7.66;100.00
32638;BME280;19045;52.268;10.506;2023-02-03T06:31:43;100690.59;;;7.68;100.00
32638;BME280;19045;52.268;10.506;2023-02-03T06:34:10;100682.56;;;7.68;100.00
32638;BME280;19045;52.268;10.506;2023-02-03T06:36:38;100680.69;;;7.69;100.00
32638;BME280;19045;52.268;10.506;2023-02-03T06:39:05;100662.78;;;7.69;100.00
32638;BME280;19045;52.268;10.506;2023-02-03T06:41:31;100670.22;;;7.67;100.00
32638;BME280;19045;52.268;10.506;2023-02-03T06:43:58;100663.25;;;7.66;100.00
32638;BME280;19045;52.268;10.506;2023-02-03T06:46:24;100664.75;;;7.62;100.00
32638;BME280;19045;52.268;10.506;2023-02-03T06:48:54;100664.19;;;7.60;100.00
32638;BME280;19045;52.268;10.506;2023-02-03T06:51:20;100662.78;;;7.58;100.00
32638;BME280;19045;52.268;10.506;2023-02-03T06:53:50;100638.84;;;7.51;100.00
32638;BME280;19045;52.268;10.506;2023-02-03T06:56:17;100643.59;;;7.49;100.00
32638;BME280;19045;52.268;10.506;2023-02-03T06:58:43;100638.97;;;7.45;100.00
32638;BME280;19045;52.268;10.506;2023-02-03T07:01:10;100633.00;;;7.43;100.00
32638;BME280;19045;52.268;10.506;2023-02-03T07:03:37;100641.03;;;7.43;100.00
32638;BME280;19045;52.268;10.506;2023-02-03T07:06:04;100630.94;;;7.45;100.00
32638;BME280;19045;52.268;10.506;2023-02-03T07:08:31;100628.00;;;7.46;100.00
32638;BME280;19045;52.268;10.506;2023-02-03T07:10:59;100625.59;;;7.45;100.00
32638;BME280;19045;52.268;10.506;2023-02-03T07:13:25;100615.94;;;7.44;100.00
32638;BME280;19045;52.268;10.506;2023-02-03T07:15:52;100620.72;;;7.42;100.00
32638;BME280;19045;52.268;10.506;2023-02-03T07:18:18;100601.19;;;7.41;100.00
32638;BME280;19045;52.268;10.506;2023-02-03T07:20:48;100604.91;;;7.40;100.00
32638;BME280;19045;52.268;10.506;2023-02-03T07:23:15;100614.19;;;7.38;100.00
32638;BME280;19045;52.268;10.506;2023-02-03T07:25:42;100594.09;;;7.47;100.00
32638;BME280;19045;52.268;10.506;2023-02-03T07:28:10;100603.97;;;7.46;100.00
32638;BME280;19045;52.268;10.506;2023-02-03T07:30:37;100618.03;;;7.42;100.00
32638;BME280;19045;52.268;10.506;2023-02-03T07:33:03;100607.91;;;7.44;100.00
32638;BME280;19045;52.268;10.506;2023-02-03T07:35:32;100620.72;;;7.42;100.00
32638;BME280;19045;52.268;10.506;2023-02-03T07:37:59;100626.28;;;7.40;100.00
32638;BME280;19045;52.268;10.506;2023-02-03T07:40:25;100602.69;;;7.37;100.00
32638;BME280;19045;52.268;10.506;2023-02-03T07:42:52;100613.94;;;7.39;100.00
32638;BME280;19045;52.268;10.506;2023-02-03T07:45:20;100611.28;;;7.39;100.00
32638;BME280;19045;52.268;10.506;2023-02-03T07:47:49;100613.72;;;7.41;100.00
32638;BME280;19045;52.268;10.506;2023-02-03T07:50:15;100616.41;;;7.41;100.00
32638;BME280;19045;52.268;10.506;2023-02-03T07:52:42;100593.38;;;7.40;100.00
32638;BME280;19045;52.268;10.506;2023-02-03T07:55:09;100590.25;;;7.43;100.00
32638;BME280;19045;52.268;10.506;2023-02-03T07:57:35;100587.00;;;7.41;100.00
32638;BME280;19045;52.268;10.506;2023-02-03T08:00:03;100596.88;;;7.40;100.00
32638;BME280;19045;52.268;10.506;2023-02-03T08:02:31;100573.88;;;7.39;100.00
32638;BME280;19045;52.268;10.506;2023-02-03T08:04:58;100585.84;;;7.37;100.00
32638;BME280;19045;52.268;10.506;2023-02-03T08:07:24;100555.97;;;7.40;100.00
32638;BME280;19045;52.268;10.506;2023-02-03T08:09:51;100575.28;;;7.42;100.00
32638;BME280;19045;52.268;10.506;2023-02-03T08:12:17;100576.66;;;7.44;100.00
32638;BME280;19045;52.268;10.506;2023-02-03T08:14:44;100578.88;;;7.47;100.00
32638;BME280;19045;52.268;10.506;2023-02-03T08:17:11;100577.47;;;7.45;100.00
32638;BME280;19045;52.268;10.506;2023-02-03T08:19:39;100573.88;;;7.51;100.00
32638;BME280;19045;52.268;10.506;2023-02-03T08:22:05;100592.03;;;7.49;100.00
32638;BME280;19045;52.268;10.506;2023-02-03T08:24:32;100577.47;;;7.45;100.00
32638;BME280;19045;52.268;10.506;2023-02-03T08:26:59;100590.38;;;7.48;100.00
32638;BME280;19045;52.268;10.506;2023-02-03T08:29:26;100589.09;;;7.50;100.00
32638;BME280;19045;52.268;10.506;2023-02-03T08:31:52;100587.94;;;7.46;100.00
32638;BME280;19045;52.268;10.506;2023-02-03T08:34:19;100585.97;;;7.42;100.00
32638;BME280;19045;52.268;10.506;2023-02-03T08:36:47;100593.28;;;7.46;100.00
32638;BME280;19045;52.268;10.506;2023-02-03T08:39:13;100582.84;;;7.45;100.00
32638;BME280;19045;52.268;10.506;2023-02-03T08:41:40;100589.00;;;7.45;100.00
32638;BME280;19045;52.268;10.506;2023-02-03T08:44:06;100584.34;;;7.52;100.00
32638;BME280;19045;52.268;10.506;2023-02-03T08:46:33;100580.59;;;7.53;100.00
32638;BME280;19045;52.268;10.506;2023-02-03T08:49:00;100581.09;;;7.62;100.00
32638;BME280;19045;52.268;10.506;2023-02-03T08:51:28;100584.56;;;7.62;100.00
32638;BME280;19045;52.268;10.506;2023-02-03T08:53:56;100581.19;;;7.67;100.00
32638;BME280;19045;52.268;10.506;2023-02-03T08:56:22;100561.91;;;7.65;100.00
32638;BME280;19045;52.268;10.506;2023-02-03T08:58:50;100562.81;;;7.70;100.00
32638;BME280;19045;52.268;10.506;2023-02-03T09:01:17;100560.38;;;7.69;100.00
32638;BME280;19045;52.268;10.506;2023-02-03T09:03:43;100539.91;;;7.74;100.00
32638;BME280;19045;52.268;10.506;2023-02-03T09:06:10;100550.34;;;7.76;100.00
32638;BME280;19045;52.268;10.506;2023-02-03T09:08:41;100556.06;;;7.79;100.00
32638;BME280;19045;52.268;10.506;2023-02-03T09:11:09;100540.94;;;7.85;100.00
32638;BME280;19045;52.268;10.506;2023-02-03T09:13:36;100553.59;;;7.90;100.00
32638;BME280;19045;52.268;10.506;2023-02-03T09:16:04;100559.28;;;7.93;100.00
32638;BME280;19045;52.268;10.506;2023-02-03T09:18:30;100576.16;;;7.94;100.00
32638;BME280;19045;52.268;10.506;2023-02-03T09:21:01;100566.84;;;7.96;100.00
32638;BME280;19045;52.268;10.506;2023-02-03T09:23:27;100561.47;;;7.96;100.00
32638;BME280;19045;52.268;10.506;2023-02-03T09:25:54;100559.16;;;8.00;100.00
32638;BME280;19045;52.268;10.506;2023-02-03T09:28:22;100558.59;;;7.98;100.00
32638;BME280;19045;52.268;10.506;2023-02-03T09:30:49;100561.25;;;7.98;100.00
32638;BME280;19045;52.268;10.506;2023-02-03T09:33:15;100561.97;;;7.93;100.00
32638;BME280;19045;52.268;10.506;2023-02-03T09:35:50;100573.25;;;7.84;100.00
32638;BME280;19045;52.268;10.506;2023-02-03T09:38:17;100566.28;;;7.82;100.00
32638;BME280;19045;52.268;10.506;2023-02-03T09:40:46;100566.75;;;7.79;100.00
32638;BME280;19045;52.268;10.506;2023-02-03T09:43:29;100555.34;;;7.84;100.00
32638;BME280;19045;52.268;10.506;2023-02-03T09:46:00;100559.19;;;7.88;100.00
32638;BME280;19045;52.268;10.506;2023-02-03T09:48:34;100561.13;;;7.93;100.00
32638;BME280;19045;52.268;10.506;2023-02-03T09:51:02;100551.84;;;7.95;100.00
32638;BME280;19045;52.268;10.506;2023-02-03T09:53:38;100550.91;;;8.01;100.00
32638;BME280;19045;52.268;10.506;2023-02-03T09:56:19;100545.63;;;8.06;100.00
32638;BME280;19045;52.268;10.506;2023-02-03T09:58:50;100557.03;;;8.13;100.00
32638;BME280;19045;52.268;10.506;2023-02-03T10:01:17;100557.34;;;8.17;100.00
32638;BME280;19045;52.268;10.506;2023-02-03T10:03:51;100560.84;;;8.17;100.00
32638;BME280;19045;52.268;10.506;2023-02-03T10:06:30;100560.13;;;8.22;100.00
32638;BME280;19045;52.268;10.506;2023-02-03T10:09:08;100572.94;;;8.20;100.00
32638;BME280;19045;52.268;10.506;2023-02-03T10:11:51;100562.72;;;8.28;100.00
32638;BME280;19045;52.268;10.506;2023-02-03T10:14:32;100573.97;;;8.19;100.00
32638;BME280;19045;52.268;10.506;2023-02-03T10:17:13;100570.97;;;8.15;100.00
32638;BME280;19045;52.268;10.506;2023-02-03T10:19:47;100574.22;;;8.17;100.00
32638;BME280;19045;52.268;10.506;2023-02-03T10:22:19;100575.19;;;8.11;100.00
32638;BME280;19045;52.268;10.506;2023-02-03T10:24:49;100570.88;;;8.10;100.00
32638;BME280;19045;52.268;10.506;2023-02-03T10:27:19;100596.44;;;8.18;100.00
32638;BME280;19045;52.268;10.506;2023-02-03T10:29:53;100583.16;;;8.23;100.00
32638;BME280;19045;52.268;10.506;2023-02-03T10:32:23;100583.75;;;8.25;100.00
32638;BME280;19045;52.268;10.506;2023-02-03T10:34:51;100602.03;;;8.28;100.00
32638;BME280;19045;52.268;10.506;2023-02-03T10:37:25;100591.34;;;8.28;100.00
32638;BME280;19045;52.268;10.506;2023-02-03T10:39:53;100573.16;;;8.30;100.00
32638;BME280;19045;52.268;10.506;2023-02-03T10:42:21;100597.13;;;8.25;100.00
32638;BME280;19045;52.268;10.506;2023-02-03T10:44:53;100593.38;;;8.26;100.00
32638;BME280;19045;52.268;10.506;2023-02-03T10:47:28;100596.44;;;8.29;100.00
32638;BME280;19045;52.268;10.506;2023-02-03T10:50:02;100639.84;;;8.20;100.00
32638;BME280;19045;52.268;10.506;2023-02-03T10:52:31;100667.97;;;8.22;100.00
32638;BME280;19045;52.268;10.506;2023-02-03T10:54:58;100627.88;;;8.11;100.00
32638;BME280;19045;52.268;10.506;2023-02-03T10:57:29;100630.00;;;7.97;100.00
32638;BME280;19045;52.268;10.506;2023-02-03T11:00:18;100635.34;;;7.86;100.00
32638;BME280;19045;52.268;10.506;2023-02-03T11:02:53;100616.03;;;7.84;100.00
32638;BME280;19045;52.268;10.506;2023-02-03T11:05:21;100614.66;;;7.81;100.00
32638;BME280;19045;52.268;10.506;2023-02-03T11:07:49;100618.03;;;7.88;100.00
32638;BME280;19045;52.268;10.506;2023-02-03T11:10:26;100606.00;;;8.02;100.00
32638;BME280;19045;52.268;10.506;2023-02-03T11:13:10;100639.16;;;8.13;100.00
32638;BME280;19045;52.268;10.506;2023-02-03T11:15:43;100639.94;;;8.25;100.00
32638;BME280;19045;52.268;10.506;2023-02-03T11:18:25;100662.16;;;8.25;100.00
32638;BME280;19045;52.268;10.506;2023-02-03T11:20:52;100650.44;;;8.38;99.81
32638;BME280;19045;52.268;10.506;2023-02-03T11:23:19;100663.06;;;8.43;98.92
32638;BME280;19045;52.268;10.506;2023-02-03T11:25:46;100655.03;;;8.43;99.24
32638;BME280;19045;52.268;10.506;2023-02-03T11:28:13;100655.72;;;8.50;99.01
32638;BME280;19045;52.268;10.506;2023-02-03T11:30:41;100676.81;;;8.46;98.66
32638;BME280;19045;52.268;10.506;2023-02-03T11:33:15;100661.41;;;8.53;98.53
32638;BME280;19045;52.268;10.506;2023-02-03T11:35:53;100663.88;;;8.55;97.78
32638;BME280;19045;52.268;10.506;2023-02-03T11:38:31;100646.25;;;8.59;97.68
32638;BME280;19045;52.268;10.506;2023-02-03T11:41:01;100647.53;;;8.68;98.12
32638;BME280;19045;52.268;10.506;2023-02-03T11:43:28;100636.75;;;8.79;98.50
32638;BME280;19045;52.268;10.506;2023-02-03T11:46:00;100648.50;;;8.78;98.36
32638;BME280;19045;52.268;10.506;2023-02-03T11:48:30;100646.66;;;8.79;97.28
32638;BME280;19045;52.268;10.506;2023-02-03T11:51:05;100653.72;;;8.85;96.96
32638;BME280;19045;52.268;10.506;2023-02-03T11:53:58;100669.00;;;8.85;95.48
32638;BME280;19045;52.268;10.506;2023-02-03T11:56:42;100669.78;;;8.85;95.80
32638;BME280;19045;52.268;10.506;2023-02-03T11:59:25;100662.88;;;8.72;95.98
32638;BME280;19045;52.268;10.506;2023-02-03T12:04:58;100665.16;;;8.80;96.22
32638;BME280;19045;52.268;10.506;2023-02-03T12:07:44;100679.47;;;8.86;97.08
32638;BME280;19045;52.268;10.506;2023-02-03T12:10:25;100677.84;;;8.85;97.04
32638;BME280;19045;52.268;10.506;2023-02-03T12:12:58;100677.84;;;8.85;97.75
32638;BME280;19045;52.268;10.506;2023-02-03T12:18:30;100677.22;;;8.95;96.34
32638;BME280;19045;52.268;10.506;2023-02-03T12:21:11;100676.78;;;8.86;95.14
32638;BME280;19045;52.268;10.506;2023-02-03T12:23:49;100661.88;;;8.90;94.96
32638;BME280;19045;52.268;10.506;2023-02-03T12:26:23;100673.09;;;9.04;95.18
32638;BME280;19045;52.268;10.506;2023-02-03T12:28:58;100681.59;;;9.46;93.04
32638;BME280;19045;52.268;10.506;2023-02-03T12:31:31;100684.09;;;9.35;92.37
32638;BME280;19045;52.268;10.506;2023-02-03T12:34:09;100684.19;;;9.24;92.52
32638;BME280;19045;52.268;10.506;2023-02-03T12:36:42;100701.25;;;9.18;93.12
32638;BME280;19045;52.268;10.506;2023-02-03T12:39:17;100689.94;;;9.16;93.28
32638;BME280;19045;52.268;10.506;2023-02-03T12:41:48;100695.34;;;9.04;92.85
32638;BME280;19045;52.268;10.506;2023-02-03T12:44:19;100709.28;;;8.90;92.52
32638;BME280;19045;52.268;10.506;2023-02-03T12:46:50;100703.50;;;8.81;92.32
32638;BME280;19045;52.268;10.506;2023-02-03T12:49:27;100712.91;;;8.83;92.73
32638;BME280;19045;52.268;10.506;2023-02-03T12:52:02;100725.47;;;8.83;92.30
32638;BME280;19045;52.268;10.506;2023-02-03T12:54:36;100730.47;;;8.91;92.13
32638;BME280;19045;52.268;10.506;2023-02-03T12:57:14;100714.78;;;9.11;90.49
32638;BME280;19045;52.268;10.506;2023-02-03T12:59:47;100713.38;;;9.37;88.70